createdAt,value
2018-12-13T00:02:46.302Z,-1.10
2018-12-13T00:05:21.363Z,-1.10
2018-12-13T00:10:56.091Z,-1.00
2018-12-13T00:13:30.182Z,-1.00
2018-12-13T00:16:04.035Z,-1.00
2018-12-13T00:18:38.613Z,-0.90
2018-12-13T00:21:10.074Z,-0.90
2018-12-13T00:23:38.275Z,-0.90
2018-12-13T00:26:06.505Z,-0.80
2018-12-13T00:28:38.462Z,-0.80
2018-12-13T00:31:19.161Z,-0.80
2018-12-13T00:33:50.886Z,-0.80
2018-12-13T00:36:19.136Z,-0.80
2018-12-13T00:38:47.350Z,-0.80
2018-12-13T00:41:29.782Z,-0.80
2018-12-13T00:44:01.630Z,-0.80
2018-12-13T00:46:29.995Z,-0.80
2018-12-13T00:49:04.405Z,-0.90
2018-12-13T00:51:40.283Z,-0.90
2018-12-13T00:54:14.177Z,-1.00
2018-12-13T00:56:48.040Z,-1.00
2018-12-13T00:59:21.997Z,-1.10
2018-12-13T01:01:55.940Z,-1.10
2018-12-13T01:04:31.902Z,-1.20
2018-12-13T01:07:05.794Z,-1.20
2018-12-13T01:09:39.878Z,-1.20
2018-12-13T01:12:21.150Z,-1.20
2018-12-13T01:14:53.154Z,-1.20
2018-12-13T01:17:27.741Z,-1.20
2018-12-13T01:20:02.574Z,-1.20
2018-12-13T01:22:36.821Z,-1.10
2018-12-13T01:25:10.882Z,-1.10
2018-12-13T01:27:44.758Z,-1.10
2018-12-13T01:30:18.706Z,-1.10
2018-12-13T01:32:52.673Z,-1.00
2018-12-13T01:35:30.526Z,-1.10
2018-12-13T01:38:04.298Z,-1.00
2018-12-13T01:40:35.743Z,-1.10
2018-12-13T01:43:10.424Z,-1.10
2018-12-13T01:45:42.550Z,-1.10
2018-12-13T01:48:17.054Z,-1.20
2018-12-13T01:50:51.162Z,-1.20
2018-12-13T01:53:25.111Z,-1.30
2018-12-13T01:55:59.174Z,-1.30
2018-12-13T01:58:33.227Z,-1.30
2018-12-13T02:01:07.522Z,-1.30
2018-12-13T02:03:41.413Z,-1.40
2018-12-13T02:06:15.452Z,-1.40
2018-12-13T02:11:21.580Z,-1.40
2018-12-13T02:13:55.420Z,-1.50
2018-12-13T02:16:29.156Z,-1.50
2018-12-13T02:19:02.917Z,-1.50
2018-12-13T02:21:38.851Z,-1.60
2018-12-13T02:24:16.584Z,-1.60
2018-12-13T02:26:50.490Z,-1.60
2018-12-13T02:29:26.567Z,-1.60
2018-12-13T02:31:58.760Z,-1.60
2018-12-13T02:34:33.043Z,-1.70
2018-12-13T02:37:07.106Z,-1.70
2018-12-13T02:42:39.375Z,-1.70
2018-12-13T02:47:49.033Z,-1.80
2018-12-13T02:53:27.775Z,-1.80
2018-12-13T03:01:47.459Z,-1.80
2018-12-13T03:04:15.782Z,-1.90
2018-12-13T03:06:50.064Z,-1.90
2018-12-13T03:09:18.446Z,-1.90
2018-12-13T03:11:46.687Z,-1.90
2018-12-13T03:14:14.929Z,-1.90
2018-12-13T03:16:43.162Z,-1.90
2018-12-13T03:19:11.770Z,-1.90
2018-12-13T03:21:40.060Z,-1.90
2018-12-13T03:24:08.314Z,-1.90
2018-12-13T03:26:36.554Z,-2.00
2018-12-13T03:29:04.911Z,-2.00
2018-12-13T03:31:33.124Z,-2.00
2018-12-13T03:34:01.517Z,-2.00
2018-12-13T03:36:29.750Z,-2.00
2018-12-13T03:38:58.039Z,-2.00
2018-12-13T03:41:26.358Z,-2.10
2018-12-13T03:43:54.573Z,-2.10
2018-12-13T03:46:22.800Z,-2.10
2018-12-13T03:48:51.018Z,-2.10
2018-12-13T03:51:19.249Z,-2.10
2018-12-13T03:53:47.444Z,-2.10
2018-12-13T03:56:15.706Z,-2.10
2018-12-13T03:58:43.922Z,-2.10
2018-12-13T04:01:12.218Z,-2.10
2018-12-13T04:03:40.423Z,-2.10
2018-12-13T04:06:08.651Z,-2.10
2018-12-13T04:08:36.842Z,-2.20
2018-12-13T04:11:05.048Z,-2.20
2018-12-13T04:13:33.235Z,-2.20
2018-12-13T04:16:01.450Z,-2.20
2018-12-13T04:18:29.646Z,-2.20
2018-12-13T04:20:57.887Z,-2.20
2018-12-13T04:23:26.064Z,-2.30
2018-12-13T04:25:54.278Z,-2.20
2018-12-13T04:28:22.475Z,-2.30
2018-12-13T04:30:50.687Z,-2.20
2018-12-13T04:33:19.036Z,-2.20
2018-12-13T04:35:47.332Z,-2.20
2018-12-13T04:38:15.535Z,-2.10
2018-12-13T04:40:43.722Z,-2.10
2018-12-13T04:43:11.913Z,-2.00
2018-12-13T04:45:40.106Z,-2.00
2018-12-13T04:48:08.382Z,-2.00
2018-12-13T04:50:36.755Z,-2.00
2018-12-13T04:53:04.947Z,-2.00
2018-12-13T04:55:33.119Z,-2.00
2018-12-13T04:58:01.291Z,-2.00
2018-12-13T05:00:29.450Z,-2.00
2018-12-13T05:02:57.832Z,-2.10
2018-12-13T05:05:25.984Z,-2.10
2018-12-13T05:07:54.186Z,-2.10
2018-12-13T05:10:33.734Z,-2.20
2018-12-13T05:13:01.950Z,-2.20
2018-12-13T05:15:30.142Z,-2.20
2018-12-13T05:17:58.379Z,-2.20
2018-12-13T05:20:34.011Z,-2.20
2018-12-13T05:23:02.227Z,-2.20
2018-12-13T05:25:30.452Z,-2.30
2018-12-13T05:31:01.763Z,-2.30
2018-12-13T05:39:26.951Z,-2.30
2018-12-13T05:41:55.173Z,-2.30
2018-12-13T05:44:23.399Z,-2.40
2018-12-13T05:46:51.818Z,-2.30
2018-12-13T05:52:12.927Z,-2.30
2018-12-13T05:54:41.194Z,-2.30
2018-12-13T05:57:09.443Z,-2.30
2018-12-13T05:59:47.214Z,-2.30
2018-12-13T06:08:09.934Z,-2.30
2018-12-13T06:10:38.149Z,-2.30
2018-12-13T06:13:06.370Z,-2.30
2018-12-13T06:15:34.615Z,-2.30
2018-12-13T06:18:21.813Z,-2.40
2018-12-13T06:23:42.585Z,-2.40
2018-12-13T06:26:16.799Z,-2.30
2018-12-13T06:28:50.678Z,-2.30
2018-12-13T06:31:24.678Z,-2.20
2018-12-13T06:33:59.178Z,-2.20
2018-12-13T06:36:33.346Z,-2.20
2018-12-13T06:39:07.839Z,-2.20
2018-12-13T06:41:42.012Z,-2.10
2018-12-13T06:44:15.742Z,-2.10
2018-12-13T06:46:49.712Z,-2.10
2018-12-13T06:49:23.495Z,-2.10
2018-12-13T06:51:55.144Z,-2.10
2018-12-13T06:54:31.642Z,-2.10
2018-12-13T06:57:05.658Z,-2.10
2018-12-13T07:02:38.155Z,-2.10
2018-12-13T07:05:12.143Z,-2.00
2018-12-13T07:07:47.998Z,-2.10
2018-12-13T07:10:22.169Z,-2.10
2018-12-13T07:12:56.146Z,-2.10
2018-12-13T07:15:30.010Z,-2.10
2018-12-13T07:18:10.228Z,-2.10
2018-12-13T07:20:48.618Z,-2.10
2018-12-13T07:23:22.362Z,-2.10
2018-12-13T07:25:56.394Z,-2.10
2018-12-13T07:28:32.231Z,-2.10
2018-12-13T07:31:06.158Z,-2.00
2018-12-13T07:33:40.220Z,-2.00
2018-12-13T07:36:14.268Z,-2.00
2018-12-13T07:38:50.174Z,-2.00
2018-12-13T07:41:23.966Z,-1.90
2018-12-13T07:43:57.966Z,-1.90
2018-12-13T07:46:32.130Z,-2.00
2018-12-13T07:49:04.431Z,-2.00
2018-12-13T07:51:38.667Z,-2.00
2018-12-13T07:54:12.858Z,-1.90
2018-12-13T07:56:46.774Z,-1.90
2018-12-13T07:59:20.642Z,-1.80
2018-12-13T08:01:54.438Z,-1.90
2018-12-13T08:04:30.240Z,-1.90
2018-12-13T08:07:04.374Z,-1.80
2018-12-13T08:09:38.218Z,-1.80
2018-12-13T08:12:12.104Z,-1.80
2018-12-13T08:14:44.263Z,-1.80
2018-12-13T08:17:16.337Z,-1.80
2018-12-13T08:19:50.637Z,-1.80
2018-12-13T08:22:24.375Z,-1.80
2018-12-13T08:24:58.178Z,-1.80
2018-12-13T08:27:32.054Z,-1.70
2018-12-13T08:30:06.040Z,-1.70
2018-12-13T08:32:38.319Z,-1.60
2018-12-13T08:35:12.482Z,-1.60
2018-12-13T08:37:46.338Z,-1.60
2018-12-13T08:40:20.188Z,-1.50
2018-12-13T08:42:53.924Z,-1.50
2018-12-13T08:45:27.795Z,-1.40
2018-12-13T08:48:01.647Z,-1.40
2018-12-13T08:53:16.410Z,-1.30
2018-12-13T08:55:44.683Z,-1.20
2018-12-13T08:58:19.218Z,-1.20
2018-12-13T09:03:51.466Z,-1.10
2018-12-13T09:09:12.162Z,-1.00
2018-12-13T09:11:40.358Z,-1.00
2018-12-13T09:14:14.807Z,-0.90
2018-12-13T09:16:43.070Z,-0.80
2018-12-13T09:19:11.279Z,-0.80
2018-12-13T09:21:39.559Z,-0.70
2018-12-13T09:24:11.095Z,-0.60
2018-12-13T09:26:39.290Z,-0.60
2018-12-13T09:32:11.278Z,-0.60
2018-12-13T09:37:37.811Z,-0.60
2018-12-13T09:43:17.906Z,-0.50
2018-12-13T09:45:46.114Z,-0.50
2018-12-13T09:51:13.795Z,-0.40
2018-12-13T09:56:39.769Z,-0.40
2018-12-13T09:59:08.058Z,-0.40
2018-12-13T10:07:18.824Z,-0.20
2018-12-13T10:09:53.382Z,-0.20
2018-12-13T10:14:55.357Z,0.00
2018-12-13T10:17:26.906Z,0.20
2018-12-13T10:20:01.320Z,0.30
2018-12-13T10:22:43.563Z,1.20
2018-12-13T10:25:17.813Z,0.40
2018-12-13T10:30:38.584Z,0.30
2018-12-13T10:33:13.754Z,0.30
2018-12-13T10:35:47.509Z,0.30
2018-12-13T10:38:21.218Z,0.20
2018-12-13T10:40:55.238Z,0.20
2018-12-13T10:46:26.385Z,0.10
2018-12-13T10:49:07.437Z,0.10
2018-12-13T10:54:33.443Z,0.10
2018-12-13T10:57:05.054Z,0.20
2018-12-13T11:02:47.219Z,0.20
2018-12-13T11:05:15.435Z,0.30
2018-12-13T11:07:55.635Z,0.30
2018-12-13T11:10:25.470Z,0.40
2018-12-13T11:12:53.850Z,0.50
2018-12-13T11:15:22.052Z,0.60
2018-12-13T11:17:55.773Z,0.70
2018-12-13T11:20:24.031Z,0.60
2018-12-13T11:22:52.234Z,0.60
2018-12-13T11:25:20.439Z,0.60
2018-12-13T11:28:13.658Z,0.50
2018-12-13T11:30:42.034Z,0.40
2018-12-13T11:33:10.311Z,0.40
2018-12-13T11:35:38.670Z,0.40
2018-12-13T11:38:07.023Z,0.40
2018-12-13T11:40:35.199Z,0.40
2018-12-13T11:43:03.574Z,0.40
2018-12-13T11:45:31.853Z,0.40
2018-12-13T11:48:00.053Z,0.30
2018-12-13T11:50:28.250Z,0.20
2018-12-13T11:52:56.444Z,0.10
2018-12-13T11:55:36.928Z,0.00
2018-12-13T11:58:07.986Z,0.00
2018-12-13T12:00:36.258Z,0.00
2018-12-13T12:03:04.460Z,0.00
2018-12-13T12:05:32.634Z,0.10
2018-12-13T12:08:00.910Z,0.10
2018-12-13T12:10:29.286Z,0.30
2018-12-13T12:12:57.515Z,0.60
2018-12-13T12:15:25.781Z,0.80
2018-12-13T12:17:54.058Z,1.00
2018-12-13T12:20:22.350Z,1.10
2018-12-13T12:22:50.558Z,1.10
2018-12-13T12:25:18.842Z,1.10
2018-12-13T12:27:47.050Z,0.90
2018-12-13T12:30:15.321Z,0.80
2018-12-13T12:32:43.521Z,0.50
2018-12-13T12:35:12.090Z,0.40
2018-12-13T12:37:40.298Z,0.30
2018-12-13T12:40:09.169Z,0.10
2018-12-13T12:42:37.455Z,0.00
2018-12-13T12:45:07.047Z,0.00
2018-12-13T12:47:35.234Z,0.00
2018-12-13T12:50:04.438Z,0.00
2018-12-13T12:52:32.629Z,0.00
2018-12-13T12:55:00.888Z,0.00
2018-12-13T12:57:29.080Z,0.00
2018-12-13T12:59:57.446Z,0.00
2018-12-13T13:02:25.666Z,0.00
2018-12-13T13:04:53.870Z,-0.10
2018-12-13T13:07:22.083Z,-0.10
2018-12-13T13:09:50.296Z,-0.20
2018-12-13T13:12:18.525Z,-0.30
2018-12-13T13:14:46.729Z,-0.30
2018-12-13T13:17:14.917Z,-0.30
2018-12-13T13:19:43.136Z,-0.30
2018-12-13T13:22:11.323Z,-0.30
2018-12-13T13:24:39.589Z,-0.30
2018-12-13T13:27:07.783Z,-0.30
2018-12-13T13:29:35.979Z,-0.30
2018-12-13T13:32:04.354Z,-0.30
2018-12-13T13:34:32.555Z,-0.30
2018-12-13T13:37:00.754Z,-0.30
2018-12-13T13:39:31.647Z,-0.30
2018-12-13T13:41:59.146Z,-0.30
2018-12-13T13:44:31.671Z,-0.30
2018-12-13T13:46:59.859Z,-0.40
2018-12-13T13:49:28.062Z,-0.40
2018-12-13T13:51:56.270Z,-0.40
2018-12-13T13:54:24.458Z,-0.40
2018-12-13T13:56:52.662Z,-0.40
2018-12-13T13:59:20.850Z,-0.40
2018-12-13T14:01:49.223Z,-0.40
2018-12-13T14:04:17.454Z,-0.40
2018-12-13T14:06:45.655Z,-0.40
2018-12-13T14:09:13.851Z,-0.40
2018-12-13T14:11:42.154Z,-0.40
2018-12-13T14:14:10.439Z,-0.40
2018-12-13T14:16:38.633Z,-0.40
2018-12-13T14:19:06.915Z,-0.40
2018-12-13T14:21:35.114Z,-0.40
2018-12-13T14:24:03.408Z,-0.40
2018-12-13T14:26:31.603Z,-0.50
2018-12-13T14:28:59.857Z,-0.50
2018-12-13T14:31:28.087Z,-0.50
2018-12-13T14:33:56.390Z,-0.50
2018-12-13T14:36:24.596Z,-0.50
2018-12-13T14:38:52.792Z,-0.50
2018-12-13T14:41:21.097Z,-0.50
2018-12-13T14:43:49.273Z,-0.60
2018-12-13T14:46:17.654Z,-0.60
2018-12-13T14:48:45.930Z,-0.60
2018-12-13T14:51:14.129Z,-0.60
2018-12-13T14:53:42.314Z,-0.60
2018-12-13T14:56:10.510Z,-0.60
2018-12-13T14:58:38.703Z,-0.60
2018-12-13T15:01:06.911Z,-0.60
2018-12-13T15:03:35.095Z,-0.60
2018-12-13T15:06:03.282Z,-0.60
2018-12-13T15:08:31.496Z,-0.70
2018-12-13T15:10:59.692Z,-0.70
2018-12-13T15:13:27.898Z,-0.80
2018-12-13T15:15:56.185Z,-0.80
2018-12-13T15:18:24.403Z,-0.80
2018-12-13T15:20:52.599Z,-0.80
2018-12-13T15:23:20.835Z,-0.80
2018-12-13T15:25:49.033Z,-0.80
2018-12-13T15:28:17.341Z,-0.80
2018-12-13T15:30:45.535Z,-0.80
2018-12-13T15:33:13.739Z,-0.80
2018-12-13T15:35:41.925Z,-0.80
2018-12-13T15:38:10.137Z,-0.80
2018-12-13T15:40:38.501Z,-0.80
2018-12-13T15:43:07.682Z,-0.80
2018-12-13T15:45:36.398Z,-0.80
2018-12-13T15:48:04.731Z,-0.80
2018-12-13T15:50:33.010Z,-0.80
2018-12-13T15:53:01.227Z,-0.80
2018-12-13T15:55:29.506Z,-0.80
2018-12-13T15:57:57.735Z,-0.80
2018-12-13T16:00:26.511Z,-0.80
2018-12-13T16:02:54.918Z,-0.80
2018-12-13T16:05:23.162Z,-0.90
2018-12-13T16:07:51.428Z,-0.90
2018-12-13T16:10:19.622Z,-0.90
2018-12-13T16:12:47.834Z,-0.80
2018-12-13T16:15:16.034Z,-0.90
2018-12-13T16:17:44.286Z,-0.90
2018-12-13T16:20:12.510Z,-0.90
2018-12-13T16:22:40.751Z,-0.90
2018-12-13T16:25:08.959Z,-0.90
2018-12-13T16:27:37.166Z,-0.90
2018-12-13T16:30:06.193Z,-0.90
2018-12-13T16:32:34.386Z,-0.90
2018-12-13T16:35:02.596Z,-0.90
2018-12-13T16:37:30.907Z,-0.90
2018-12-13T16:39:59.130Z,-0.90
2018-12-13T16:42:27.402Z,-0.90
2018-12-13T16:44:56.873Z,-0.90
2018-12-13T16:47:25.365Z,-0.90
2018-12-13T16:49:53.665Z,-0.90
2018-12-13T16:52:21.890Z,-0.90
2018-12-13T16:54:50.236Z,-0.90
2018-12-13T16:57:18.569Z,-0.90
2018-12-13T16:59:47.140Z,-0.90
2018-12-13T17:02:17.477Z,-0.90
2018-12-13T17:07:32.681Z,-0.80
2018-12-13T17:10:00.877Z,-0.80
2018-12-13T17:12:29.081Z,-0.80
2018-12-13T17:14:57.298Z,-0.70
2018-12-13T17:17:25.585Z,-0.70
2018-12-13T17:19:53.782Z,-0.70
2018-12-13T17:22:22.108Z,-0.70
2018-12-13T17:24:50.342Z,-0.70
2018-12-13T17:27:18.589Z,-0.70
2018-12-13T17:29:48.555Z,-0.70
2018-12-13T17:32:20.195Z,-0.70
2018-12-13T17:34:48.487Z,-0.70
2018-12-13T17:37:16.783Z,-0.70
2018-12-13T17:39:45.010Z,-0.70
2018-12-13T17:42:13.219Z,-0.70
2018-12-13T17:44:41.419Z,-0.70
2018-12-13T17:47:15.898Z,-0.70
2018-12-13T17:52:41.922Z,-0.70
2018-12-13T17:58:08.371Z,-0.70
2018-12-13T18:00:36.674Z,-0.70
2018-12-13T18:03:04.878Z,-0.60
2018-12-13T18:05:51.511Z,-0.70
2018-12-13T18:08:21.481Z,-0.60
2018-12-13T18:13:52.590Z,-0.60
2018-12-13T18:16:26.606Z,-0.60
2018-12-13T18:24:50.731Z,-0.60
2018-12-13T18:27:18.953Z,-0.60
2018-12-13T18:29:53.356Z,-0.60
2018-12-13T18:32:27.276Z,-0.60
2018-12-13T18:35:01.011Z,-0.70
2018-12-13T18:37:35.806Z,-0.60
2018-12-13T18:43:04.753Z,-0.60
2018-12-13T18:45:36.632Z,-0.70
2018-12-13T18:48:08.474Z,-0.70
2018-12-13T18:50:47.623Z,-0.70
2018-12-13T18:53:21.599Z,-0.60
2018-12-13T18:55:53.051Z,-0.60
2018-12-13T18:58:33.995Z,-0.70
2018-12-13T19:01:23.131Z,-0.40
2018-12-13T19:03:57.170Z,-0.70
2018-12-13T19:06:31.063Z,-0.70
2018-12-13T19:09:05.870Z,-0.70
2018-12-13T19:11:37.554Z,-0.70
2018-12-13T19:14:11.207Z,-0.70
2018-12-13T19:16:45.336Z,-0.70
2018-12-13T19:21:50.950Z,-0.70
2018-12-13T19:24:25.323Z,-0.70
2018-12-13T19:26:53.578Z,-0.70
2018-12-13T19:32:23.086Z,-0.70
2018-12-13T19:34:51.347Z,-0.70
2018-12-13T19:39:59.960Z,-0.70
2018-12-13T19:42:33.804Z,-0.70
2018-12-13T19:45:07.623Z,-0.70
2018-12-13T19:47:41.777Z,-0.70
2018-12-13T19:50:16.130Z,-0.70
2018-12-13T19:52:50.023Z,-0.70
2018-12-13T19:55:24.142Z,-0.70
2018-12-13T19:57:58.498Z,-0.70
2018-12-13T20:00:30.526Z,-0.70
2018-12-13T20:03:02.417Z,-0.70
2018-12-13T20:05:34.588Z,-0.70
2018-12-13T20:08:12.376Z,-0.70
2018-12-13T20:10:46.719Z,-0.70
2018-12-13T20:13:20.459Z,-0.70
2018-12-13T20:15:54.231Z,-0.70
2018-12-13T20:18:22.496Z,-0.70
2018-12-13T20:23:52.027Z,-0.80
2018-12-13T20:26:24.366Z,-0.80
2018-12-13T20:29:15.548Z,-0.80
2018-12-13T20:31:43.769Z,-0.80
2018-12-13T20:34:12.099Z,-0.80
2018-12-13T20:36:42.154Z,-0.90
2018-12-13T20:39:12.090Z,-0.80
2018-12-13T20:41:46.441Z,-0.80
2018-12-13T20:44:18.611Z,-0.80
2018-12-13T20:46:46.860Z,-0.80
2018-12-13T20:49:17.022Z,-0.80
2018-12-13T20:51:48.915Z,-0.80
2018-12-13T20:54:26.933Z,-0.90
2018-12-13T20:56:55.150Z,-0.90
2018-12-13T20:59:31.254Z,-0.90
2018-12-13T21:01:59.564Z,-0.90
2018-12-13T21:04:27.866Z,-0.90
2018-12-13T21:09:53.695Z,-1.00
2018-12-13T21:15:19.165Z,-1.00
2018-12-13T21:23:51.313Z,-1.00
2018-12-13T21:26:19.555Z,-1.00
2018-12-13T21:28:47.865Z,-1.10
2018-12-13T21:31:16.079Z,-1.00
2018-12-13T21:33:46.383Z,-1.10
2018-12-13T21:36:14.561Z,-1.10
2018-12-13T21:38:42.801Z,-1.10
2018-12-13T21:41:13.715Z,-1.10
2018-12-13T21:43:41.235Z,-1.10
2018-12-13T21:46:09.460Z,-1.20
2018-12-13T21:48:37.640Z,-1.20
2018-12-13T21:51:05.991Z,-1.20
2018-12-13T21:53:34.286Z,-1.20
2018-12-13T21:56:02.537Z,-1.20
2018-12-13T21:58:30.760Z,-1.20
2018-12-13T22:00:59.001Z,-1.20
2018-12-13T22:03:27.235Z,-1.20
2018-12-13T22:05:55.474Z,-1.20
2018-12-13T22:08:23.714Z,-1.20
2018-12-13T22:10:59.132Z,-1.20
2018-12-13T22:13:27.336Z,-1.20
2018-12-13T22:21:55.814Z,-1.20
2018-12-13T22:24:23.562Z,-1.20
2018-12-13T22:26:51.832Z,-2.40
2018-12-13T22:29:23.699Z,-1.20
2018-12-13T22:43:04.226Z,-1.20
2018-12-13T22:45:40.870Z,-1.20
2018-12-13T22:50:47.074Z,-1.20
2018-12-13T22:53:25.546Z,-1.20
2018-12-13T22:56:00.518Z,-1.20
2018-12-13T22:58:35.151Z,-1.20
2018-12-13T23:01:09.992Z,-1.20
2018-12-13T23:03:51.080Z,-1.20
2018-12-13T23:06:25.289Z,-1.20
2018-12-13T23:08:56.992Z,-1.20
2018-12-13T23:11:32.823Z,-1.20
2018-12-13T23:14:07.140Z,-1.20
2018-12-13T23:19:13.298Z,-1.20
2018-12-13T23:21:47.538Z,-1.20
2018-12-13T23:24:21.450Z,-1.20
2018-12-13T23:29:26.379Z,-1.20
2018-12-13T23:34:57.531Z,-1.20
2018-12-13T23:40:27.907Z,-1.20
2018-12-13T23:46:00.015Z,-1.20
2018-12-13T23:48:31.679Z,-1.20
2018-12-13T23:51:16.142Z,-1.20
2018-12-13T23:53:50.283Z,-1.20
2018-12-13T23:56:24.090Z,-1.20
2018-12-13T23:58:58.004Z,-1.20
